Time;durP1;ratioP1;P1;durP2;ratioP2;P2;SDS_P1;SDS_P2;PMS_P1;PMS_P2;Temp;Humidity;BMP_temperature;BMP_pressure;BME280_temperature;BME280_humidity;BME280_pressure;Samples;Min_cycle;Max_cycle;Signal;HPM_P1;HPM_P2
2022/01/06 00:00:10;;;;;;;17.00;15.40;;;;;;;1.67;100.00;97897.38;2086038;28;20249;-74
2022/01/06 00:01:16;;;;;;;17.15;15.35;;;;;;;1.66;100.00;97901.88;2086986;28;20222;-74
2022/01/06 00:02:18;;;;;;;17.63;15.80;;;;;;;1.67;100.00;97895.53;2086422;28;20337;-75
2022/01/06 00:03:19;;;;;;;16.47;15.03;;;;;;;1.68;100.00;97905.00;2077743;28;20231;-74
2022/01/06 00:04:21;;;;;;;16.38;14.90;;;;;;;1.68;100.00;97902.38;2086489;28;20450;-74
2022/01/06 00:05:22;;;;;;;16.67;14.98;;;;;;;1.70;100.00;97904.72;2086835;28;20211;-74
2022/01/06 00:06:25;;;;;;;15.53;14.33;;;;;;;1.75;100.00;97901.31;2086350;28;20226;-75
2022/01/06 00:07:26;;;;;;;20.00;15.40;;;;;;;1.75;100.00;97898.69;2086327;28;20510;-74
2022/01/06 00:08:31;;;;;;;15.70;14.30;;;;;;;1.74;100.00;97891.84;2086440;28;20229;-74
2022/01/06 00:09:32;;;;;;;14.98;13.65;;;;;;;1.77;100.00;97891.31;2086995;28;20285;-74
2022/01/06 00:10:34;;;;;;;14.77;13.57;;;;;;;1.75;100.00;97888.97;2087222;28;20244;-74
2022/01/06 00:11:36;;;;;;;16.63;14.75;;;;;;;1.76;100.00;97905.53;2086338;28;20219;-74
2022/01/06 00:12:43;;;;;;;15.85;14.38;;;;;;;1.80;100.00;97901.28;2077807;28;20230;-75
2022/01/06 00:13:53;;;;;;;16.55;15.05;;;;;;;1.81;100.00;97902.84;2086113;28;20230;-74
2022/01/06 00:15:01;;;;;;;14.98;13.63;;;;;;;1.83;100.00;97901.56;2085764;28;20343;-74
2022/01/06 00:16:12;;;;;;;14.95;13.65;;;;;;;1.85;100.00;97906.53;2079011;28;20219;-74
2022/01/06 00:17:25;;;;;;;14.93;13.30;;;;;;;1.84;100.00;97903.13;2078080;28;20223;-75
2022/01/06 00:18:38;;;;;;;15.80;14.07;;;;;;;1.82;100.00;97904.44;2086052;28;20246;-74
2022/01/06 00:23:54;;;;;;;16.58;14.85;;;;;;;1.96;100.00;97905.44;2057201;28;20224;-75
2022/01/06 00:24:56;;;;;;;16.55;14.60;;;;;;;1.96;100.00;97900.19;2061624;28;20235;-74
2022/01/06 00:25:58;;;;;;;15.10;13.60;;;;;;;2.00;100.00;97893.34;2061691;28;20224;-74
2022/01/06 00:26:59;;;;;;;15.18;13.50;;;;;;;1.96;100.00;97895.72;2053452;28;20240;-75
2022/01/06 00:28:00;;;;;;;14.98;13.68;;;;;;;1.96;100.00;97890.47;2053663;28;20755;-75
2022/01/06 00:29:02;;;;;;;15.00;13.80;;;;;;;1.97;100.00;97899.91;2053544;28;20628;-75
2022/01/06 00:30:03;;;;;;;15.45;14.10;;;;;;;1.97;100.00;97896.50;2082790;28;20218;-75
2022/01/06 00:31:07;;;;;;;15.70;14.40;;;;;;;1.97;100.00;97891.25;2078234;28;20682;-75
2022/01/06 00:32:09;;;;;;;14.55;13.45;;;;;;;1.98;100.00;97898.88;2077813;28;20230;-75
2022/01/06 00:33:10;;;;;;;15.90;13.95;;;;;;;1.99;100.00;97891.75;2086257;28;20301;-75
2022/01/06 00:34:12;;;;;;;15.23;13.80;;;;;;;2.01;100.00;97891.50;2087003;28;20254;-75
2022/01/06 00:35:12;;;;;;;15.25;13.73;;;;;;;1.99;100.00;97889.13;2086299;28;20234;-75
2022/01/06 00:36:14;;;;;;;14.90;13.60;;;;;;;2.05;100.00;97895.16;2086283;28;20225;-75
2022/01/06 00:37:16;;;;;;;16.40;14.50;;;;;;;2.04;100.00;97907.53;2086331;28;20226;-75
2022/01/06 00:38:22;;;;;;;14.50;13.20;;;;;;;2.07;100.00;97909.63;2086331;28;20269;-75
2022/01/06 00:39:27;;;;;;;14.48;12.98;;;;;;;2.07;100.00;97899.09;2085855;28;20227;-75
2022/01/06 00:40:29;;;;;;;13.48;12.23;;;;;;;2.07;100.00;97908.84;2086278;28;20231;-75
2022/01/06 00:41:33;;;;;;;14.75;13.43;;;;;;;2.07;100.00;97904.34;2086231;28;20222;-75
2022/01/06 00:42:34;;;;;;;14.80;13.50;;;;;;;2.05;100.00;97913.59;2078471;28;20223;-75
2022/01/06 00:43:35;;;;;;;15.05;13.95;;;;;;;2.05;100.00;97914.38;2078042;28;20306;-75
2022/01/06 00:44:37;;;;;;;14.47;12.93;;;;;;;2.06;100.00;97920.41;2086108;28;20218;-75
2022/01/06 00:45:37;;;;;;;14.93;13.68;;;;;;;2.10;100.00;97929.34;2085864;28;20234;-75
2022/01/06 00:46:39;;;;;;;16.33;14.80;;;;;;;2.09;100.00;97919.91;2086123;28;20306;-75
2022/01/06 00:47:40;;;;;;;15.40;14.13;;;;;;;2.10;100.00;97922.25;2086190;28;20227;-75
2022/01/06 00:48:41;;;;;;;14.90;13.80;;;;;;;2.13;100.00;97926.97;2087126;28;20229;-74
2022/01/06 00:49:42;;;;;;;16.58;15.43;;;;;;;2.18;100.00;97931.44;2086137;28;20248;-75
2022/01/06 00:50:44;;;;;;;16.10;14.83;;;;;;;2.19;100.00;97931.16;2078028;28;20314;-75
2022/01/06 00:51:47;;;;;;;15.52;14.15;;;;;;;2.17;100.00;97935.91;2078058;28;20223;-75
2022/01/06 00:52:49;;;;;;;15.95;14.55;;;;;;;2.23;100.00;97952.44;2086267;28;20229;-74
2022/01/06 00:53:51;;;;;;;15.50;14.30;;;;;;;2.23;100.00;97945.34;2086112;28;20227;-75
2022/01/06 00:54:53;;;;;;;15.02;13.90;;;;;;;2.23;100.00;97936.66;2077390;28;20223;-75
2022/01/06 00:55:54;;;;;;;16.13;14.88;;;;;;;2.23;100.00;97932.19;2077953;28;20220;-75
2022/01/06 00:56:55;;;;;;;15.80;14.07;;;;;;;2.30;100.00;97931.13;2086215;28;20242;-75
2022/01/06 00:57:56;;;;;;;15.23;13.80;;;;;;;2.30;100.00;97936.38;2086810;28;20242;-75
2022/01/06 00:58:58;;;;;;;14.88;13.50;;;;;;;2.26;100.00;97929.03;2085916;28;20304;-75
2022/01/06 00:59:59;;;;;;;15.00;13.90;;;;;;;2.29;100.00;97911.91;2086116;28;20568;-75
2022/01/06 01:01:01;;;;;;;15.43;13.70;;;;;;;2.28;100.00;97927.97;2077866;28;20298;-75
2022/01/06 01:02:02;;;;;;;16.02;14.70;;;;;;;2.29;100.00;97919.03;2086084;28;20770;-75
2022/01/06 01:03:04;;;;;;;15.63;14.32;;;;;;;2.30;100.00;97921.38;2086660;28;20222;-74
2022/01/06 01:04:06;;;;;;;15.75;14.52;;;;;;;2.34;100.00;97921.63;2086224;28;20225;-75
2022/01/06 01:05:08;;;;;;;15.57;14.50;;;;;;;2.37;100.00;97911.34;2077559;28;20223;-75
2022/01/06 01:06:11;;;;;;;15.45;14.35;;;;;;;2.36;100.00;97915.03;2078009;28;20636;-75
2022/01/06 01:07:12;;;;;;;16.45;15.10;;;;;;;2.42;100.00;97913.16;2086250;28;20237;-75
2022/01/06 01:08:14;;;;;;;16.50;14.93;;;;;;;2.41;100.00;97919.47;2086946;28;20225;-75
2022/01/06 01:09:16;;;;;;;15.45;14.40;;;;;;;2.42;100.00;97911.31;2087893;28;20223;-74
2022/01/06 01:10:18;;;;;;;15.73;14.25;;;;;;;2.41;100.00;97908.94;2088493;28;20225;-75
2022/01/06 01:11:19;;;;;;;15.30;14.18;;;;;;;2.36;100.00;97907.16;2088557;28;20232;-75
2022/01/06 01:12:24;;;;;;;15.93;14.63;;;;;;;2.40;100.00;97918.69;2087685;28;20293;-75
2022/01/06 01:13:31;;;;;;;17.05;15.63;;;;;;;2.42;100.00;97910.53;2087562;28;20230;-75
2022/01/06 01:14:42;;;;;;;16.45;15.05;;;;;;;2.41;100.00;97907.09;2088444;28;20235;-75
2022/01/06 01:15:49;;;;;;;15.70;14.35;;;;;;;2.38;100.00;97923.44;2088104;28;20221;-75
2022/01/06 01:16:54;;;;;;;16.20;14.90;;;;;;;2.41;100.00;97917.63;2088564;28;20238;-74
2022/01/06 01:18:05;;;;;;;15.80;14.60;;;;;;;2.47;100.00;97913.13;2088244;28;20314;-75
2022/01/06 01:19:10;;;;;;;17.23;15.82;;;;;;;2.47;100.00;97918.41;2087653;28;20245;-75
2022/01/06 01:20:14;;;;;;;16.35;15.00;;;;;;;2.39;100.00;97932.13;2087831;28;20723;-75
2022/01/06 01:21:16;;;;;;;16.10;14.80;;;;;;;2.41;100.00;97940.53;2095610;28;20222;-75
2022/01/06 01:22:17;;;;;;;16.88;15.70;;;;;;;2.44;100.00;97925.00;2087569;28;20593;-75
2022/01/06 01:23:20;;;;;;;16.27;14.90;;;;;;;2.50;100.00;97925.75;2087595;28;20241;-75
2022/01/06 01:24:23;;;;;;;16.48;15.10;;;;;;;2.43;100.00;97925.25;2087703;28;20250;-75
2022/01/06 01:25:25;;;;;;;17.02;15.43;;;;;;;2.43;100.00;97946.31;2087254;28;20246;-75
2022/01/06 01:26:30;;;;;;;16.10;14.68;;;;;;;2.42;100.00;97913.94;2087586;28;20233;-75
2022/01/06 01:27:36;;;;;;;16.83;15.38;;;;;;;2.44;100.00;97935.53;2080110;28;20306;-75
2022/01/06 01:28:44;;;;;;;15.80;14.70;;;;;;;2.48;100.00;97912.06;2087446;28;20237;-75
2022/01/06 01:29:56;;;;;;;16.33;15.10;;;;;;;2.45;100.00;97902.09;2087502;28;20218;-75
2022/01/06 01:31:11;;;;;;;16.17;14.60;;;;;;;2.47;100.00;97902.59;2080356;28;20242;-75
2022/01/06 01:32:12;;;;;;;16.63;15.23;;;;;;;2.45;100.00;97896.84;2080904;28;20230;-75
2022/01/06 01:33:16;;;;;;;17.43;16.03;;;;;;;2.39;100.00;97895.28;2087621;28;20218;-75
2022/01/06 01:34:23;;;;;;;16.42;15.32;;;;;;;2.34;100.00;97895.28;2087376;28;20226;-75
2022/01/06 01:35:30;;;;;;;15.10;14.10;;;;;;;2.32;100.00;97885.03;2087420;28;20237;-75
2022/01/06 01:36:32;;;;;;;15.90;14.70;;;;;;;2.36;100.00;97899.25;2087748;28;20222;-74
2022/01/06 01:37:33;;;;;;;16.40;15.10;;;;;;;2.34;100.00;97892.66;2087657;28;20215;-75
2022/01/06 01:38:36;;;;;;;15.48;14.38;;;;;;;2.34;100.00;97911.09;2088244;28;20219;-74
2022/01/06 01:39:39;;;;;;;15.85;14.63;;;;;;;2.40;100.00;97895.00;2087815;28;20234;-74
2022/01/06 01:40:41;;;;;;;15.93;14.68;;;;;;;2.46;100.00;97893.16;2087371;28;20223;-75
2022/01/06 01:41:43;;;;;;;15.73;14.50;;;;;;;2.44;100.00;97890.00;2087363;28;20697;-75
2022/01/06 01:42:44;;;;;;;15.30;14.30;;;;;;;2.37;100.00;97900.03;2087544;28;20630;-75
2022/01/06 01:43:46;;;;;;;15.93;14.73;;;;;;;2.36;100.00;97894.00;2088037;28;20248;-75
2022/01/06 01:44:50;;;;;;;16.45;15.15;;;;;;;2.38;100.00;97902.41;2088160;28;20226;-75
2022/01/06 01:45:56;;;;;;;15.85;14.52;;;;;;;2.42;100.00;97898.16;2088254;28;20233;-74
2022/01/06 01:47:00;;;;;;;16.42;15.02;;;;;;;2.42;100.00;97910.53;2087721;28;20611;-74
2022/01/06 01:48:06;;;;;;;16.83;15.40;;;;;;;2.38;100.00;97904.25;2095507;28;20627;-74
2022/01/06 01:49:17;;;;;;;17.88;16.17;;;;;;;2.42;100.00;97892.09;2094446;28;20309;-75
2022/01/06 01:50:18;;;;;;;15.55;14.48;;;;;;;2.41;100.00;97885.25;2087305;28;20231;-75
2022/01/06 01:51:20;;;;;;;16.55;15.20;;;;;;;2.38;100.00;97898.97;2087330;28;20298;-74
2022/01/06 01:52:20;;;;;;;16.65;15.32;;;;;;;2.37;100.00;97906.09;2079096;28;20305;-74
2022/01/06 01:53:22;;;;;;;15.83;14.53;;;;;;;2.38;100.00;97889.22;2087429;28;20242;-74
2022/01/06 01:54:26;;;;;;;15.93;14.52;;;;;;;2.35;100.00;97881.09;2086832;28;20571;-75
2022/01/06 01:55:32;;;;;;;16.90;15.50;;;;;;;2.34;100.00;97890.03;2087352;28;20236;-74
2022/01/06 01:56:33;;;;;;;15.93;14.73;;;;;;;2.32;100.00;97886.88;2087079;28;20219;-75
2022/01/06 01:57:34;;;;;;;15.70;14.60;;;;;;;2.34;100.00;97890.81;2087409;28;20814;-74
2022/01/06 01:58:37;;;;;;;16.90;15.40;;;;;;;2.37;100.00;97886.88;2095639;28;20582;-75
2022/01/06 01:59:38;;;;;;;16.08;14.95;;;;;;;2.36;100.00;97898.47;2095151;28;20226;-75
2022/01/06 02:00:40;;;;;;;15.90;14.67;;;;;;;2.34;100.00;97908.44;2088039;28;20705;-75
2022/01/06 02:01:42;;;;;;;16.23;14.80;;;;;;;2.33;100.00;97899.78;2087177;28;20226;-74
2022/01/06 02:02:43;;;;;;;15.75;14.55;;;;;;;2.31;100.00;97909.00;2078974;28;20223;-75
2022/01/06 02:03:44;;;;;;;15.40;14.25;;;;;;;2.29;100.00;97913.75;2086696;28;20238;-75
2022/01/06 02:04:47;;;;;;;16.10;14.90;;;;;;;2.28;100.00;97904.28;2079003;28;20215;-74
2022/01/06 02:05:48;;;;;;;14.93;14.02;;;;;;;2.28;100.00;97909.56;2087408;28;20222;-74
2022/01/06 02:06:50;;;;;;;15.20;14.13;;;;;;;2.26;100.00;97905.34;2088153;28;20242;-74
2022/01/06 02:07:52;;;;;;;14.82;13.82;;;;;;;2.29;100.00;97906.66;2087857;28;20229;-75
2022/01/06 02:08:54;;;;;;;15.75;14.43;;;;;;;2.28;100.00;97905.06;2087464;28;20233;-75
2022/01/06 02:10:00;;;;;;;14.70;13.60;;;;;;;2.26;100.00;97912.47;2087901;28;20584;-74
2022/01/06 02:11:03;;;;;;;14.98;13.80;;;;;;;2.23;100.00;97905.88;2087127;28;20704;-75
2022/01/06 02:12:04;;;;;;;14.32;13.23;;;;;;;2.20;100.00;97909.06;2087287;28;20603;-75
2022/01/06 02:13:06;;;;;;;14.85;13.65;;;;;;;2.19;100.00;97907.47;2087217;28;20219;-75
2022/01/06 02:14:07;;;;;;;15.27;14.15;;;;;;;2.16;100.00;97913.25;2086914;28;20227;-75
2022/01/06 02:15:10;;;;;;;15.10;13.90;;;;;;;2.18;100.00;97907.75;2087085;28;20258;-74
2022/01/06 02:16:11;;;;;;;15.57;14.48;;;;;;;2.17;100.00;97914.88;2087290;28;20222;-75
2022/01/06 02:17:13;;;;;;;15.17;14.03;;;;;;;2.14;100.00;97909.34;2086955;28;20257;-75
2022/01/06 02:18:13;;;;;;;15.55;14.27;;;;;;;2.14;100.00;97910.13;2086953;28;20226;-75
2022/01/06 02:19:15;;;;;;;15.87;14.77;;;;;;;2.12;100.00;97916.72;2087892;28;20766;-75
2022/01/06 02:20:18;;;;;;;15.18;14.13;;;;;;;2.07;100.00;97914.88;2087445;28;20219;-75
2022/01/06 02:21:21;;;;;;;15.48;14.30;;;;;;;2.09;100.00;97915.41;2087169;28;20696;-74
2022/01/06 02:22:21;;;;;;;15.90;14.60;;;;;;;2.09;100.00;97918.06;2086760;28;20671;-75
2022/01/06 02:23:25;;;;;;;15.40;14.37;;;;;;;2.07;100.00;97914.88;2087907;28;20277;-74
2022/01/06 02:24:25;;;;;;;14.43;13.23;;;;;;;2.04;100.00;97910.16;2086971;28;20621;-74
2022/01/06 02:25:29;;;;;;;14.50;13.40;;;;;;;2.01;100.00;97908.06;2087000;28;20235;-75
2022/01/06 02:26:30;;;;;;;15.55;14.35;;;;;;;1.99;100.00;97915.44;2087062;28;20214;-75
2022/01/06 02:27:32;;;;;;;15.17;14.07;;;;;;;1.96;100.00;97906.25;2078898;28;20314;-75
2022/01/06 02:28:32;;;;;;;15.48;14.07;;;;;;;1.91;100.00;97908.09;2078945;28;20696;-75
2022/01/06 02:29:36;;;;;;;15.13;13.73;;;;;;;1.90;100.00;97915.19;2079066;28;20596;-75
2022/01/06 02:30:38;;;;;;;15.35;13.90;;;;;;;1.85;100.00;97915.22;2086836;28;20696;-75
2022/01/06 02:31:41;;;;;;;14.57;13.43;;;;;;;1.83;100.00;97911.28;2087715;28;20249;-75
2022/01/06 02:32:43;;;;;;;15.43;14.27;;;;;;;1.82;100.00;97914.94;2086910;28;20237;-75
2022/01/06 02:33:44;;;;;;;15.65;14.40;;;;;;;1.80;100.00;97922.31;2086907;28;20277;-75
2022/01/06 02:34:47;;;;;;;15.30;14.17;;;;;;;1.82;100.00;97920.22;2086869;28;20314;-75
2022/01/06 02:35:51;;;;;;;15.38;14.18;;;;;;;1.81;100.00;97923.91;2087035;28;20223;-75
2022/01/06 02:36:52;;;;;;;16.10;14.77;;;;;;;1.79;100.00;97924.16;2087257;28;20743;-76
2022/01/06 02:37:54;;;;;;;15.00;13.90;;;;;;;1.77;100.00;97923.66;2087059;28;20231;-75
2022/01/06 02:38:55;;;;;;;16.67;15.38;;;;;;;1.77;100.00;97930.75;2087065;28;20223;-75
2022/01/06 02:39:56;;;;;;;15.77;14.67;;;;;;;1.76;100.00;97931.81;2087699;28;20242;-75
2022/01/06 02:40:57;;;;;;;15.38;14.32;;;;;;;1.79;100.00;97931.28;2087690;28;20229;-75
2022/01/06 02:41:59;;;;;;;14.63;13.53;;;;;;;1.79;100.00;97936.53;2087737;28;20222;-75
2022/01/06 02:43:01;;;;;;;15.80;14.40;;;;;;;1.75;100.00;97923.13;2087774;28;20230;-75
2022/01/06 02:44:05;;;;;;;14.20;13.10;;;;;;;1.76;100.00;97923.94;2087618;28;20223;-75
2022/01/06 02:45:07;;;;;;;14.80;13.57;;;;;;;1.75;100.00;97924.97;2087752;28;20219;-75
2022/01/06 02:46:09;;;;;;;15.52;14.02;;;;;;;1.76;100.00;97927.34;2086548;28;20277;-75
2022/01/06 02:47:10;;;;;;;14.98;13.90;;;;;;;1.79;100.00;97929.44;2087027;28;20226;-75
2022/01/06 02:48:14;;;;;;;15.47;14.27;;;;;;;1.81;100.00;97918.63;2087707;28;20306;-74
2022/01/06 02:49:14;;;;;;;15.18;13.88;;;;;;;1.79;100.00;97916.28;2086902;28;20661;-75
2022/01/06 02:50:18;;;;;;;14.63;13.60;;;;;;;1.81;100.00;97927.31;2086898;28;20360;-75
2022/01/06 02:51:20;;;;;;;15.15;14.13;;;;;;;1.83;100.00;97916.56;2087660;28;20243;-74
2022/01/06 02:52:22;;;;;;;15.50;14.25;;;;;;;1.85;100.00;97924.94;2087634;28;20223;-75
2022/01/06 02:53:24;;;;;;;14.65;13.57;;;;;;;1.89;100.00;97921.50;2086394;28;20318;-75
2022/01/06 02:54:25;;;;;;;15.68;14.57;;;;;;;1.90;100.00;97924.94;2078600;28;20273;-75
2022/01/06 02:55:27;;;;;;;15.73;14.50;;;;;;;1.88;100.00;97925.19;2078712;28;20220;-75
2022/01/06 02:56:29;;;;;;;16.60;15.40;;;;;;;1.91;100.00;97915.97;2086757;28;20231;-75
2022/01/06 02:57:32;;;;;;;16.60;15.30;;;;;;;1.91;100.00;97926.50;2087546;28;20593;-75
2022/01/06 02:58:34;;;;;;;15.20;14.18;;;;;;;1.92;100.00;97922.84;2086798;28;20222;-75
2022/01/06 02:59:35;;;;;;;16.57;15.17;;;;;;;1.92;100.00;97913.09;2086911;28;20226;-75
2022/01/06 03:00:36;;;;;;;15.85;14.65;;;;;;;1.90;100.00;97907.31;2087649;28;20226;-75
2022/01/06 03:01:39;;;;;;;16.17;14.90;;;;;;;1.96;100.00;97923.88;2087305;28;20223;-76
2022/01/06 03:02:41;;;;;;;15.45;14.45;;;;;;;1.97;100.00;97914.91;2086797;28;20280;-75
2022/01/06 03:03:44;;;;;;;16.23;14.90;;;;;;;1.95;100.00;97914.41;2086871;28;20285;-75
2022/01/06 03:04:45;;;;;;;15.52;14.40;;;;;;;1.93;100.00;97925.19;2087480;28;20272;-75
2022/01/06 03:05:46;;;;;;;16.00;14.70;;;;;;;1.93;100.00;97909.41;2087600;28;20238;-75
2022/01/06 03:06:49;;;;;;;15.07;14.00;;;;;;;1.95;100.00;97911.78;2087530;28;20222;-75
2022/01/06 03:07:50;;;;;;;16.20;15.00;;;;;;;1.96;100.00;97916.75;2086795;28;20574;-75
2022/01/06 03:08:51;;;;;;;14.82;13.85;;;;;;;1.98;100.00;97911.22;2086651;28;20736;-75
2022/01/06 03:09:55;;;;;;;15.43;14.33;;;;;;;1.99;100.00;97915.44;2087149;28;20590;-75
2022/01/06 03:10:57;;;;;;;16.25;14.77;;;;;;;1.98;100.00;97916.50;2087496;28;20241;-75
2022/01/06 03:12:00;;;;;;;14.80;13.50;;;;;;;1.94;100.00;97907.56;2086721;28;20643;-75
2022/01/06 03:13:01;;;;;;;14.85;13.65;;;;;;;1.91;100.00;97908.09;2078978;28;20793;-75
2022/01/06 03:14:03;;;;;;;14.80;13.70;;;;;;;1.93;100.00;97913.88;2078277;28;20628;-75
2022/01/06 03:15:05;;;;;;;14.60;13.57;;;;;;;1.93;100.00;97916.53;2086700;28;20280;-75
2022/01/06 03:16:07;;;;;;;15.18;13.80;;;;;;;2.00;100.00;97917.03;2086775;28;20565;-75
2022/01/06 03:17:07;;;;;;;14.95;13.85;;;;;;;1.99;100.00;97915.44;2087016;28;20223;-75
2022/01/06 03:18:10;;;;;;;15.37;14.27;;;;;;;2.00;100.00;97922.28;2094920;28;20225;-76
2022/01/06 03:19:12;;;;;;;14.95;13.95;;;;;;;1.99;100.00;97921.47;2086585;28;20235;-76
2022/01/06 03:20:18;;;;;;;15.50;14.13;;;;;;;1.99;100.00;97918.06;2078845;28;20615;-75
2022/01/06 03:21:19;;;;;;;14.80;13.68;;;;;;;1.99;100.00;97925.94;2078811;28;20223;-75
2022/01/06 03:22:22;;;;;;;15.23;13.80;;;;;;;1.98;100.00;97929.63;2086753;28;20222;-75
2022/01/06 03:23:23;;;;;;;14.60;13.50;;;;;;;1.97;100.00;97928.84;2078184;28;20272;-75
2022/01/06 03:24:24;;;;;;;15.27;14.07;;;;;;;1.99;100.00;97929.38;2086728;28;20291;-76
2022/01/06 03:25:25;;;;;;;15.07;13.75;;;;;;;1.98;100.00;97924.38;2087366;28;20226;-75
2022/01/06 03:26:27;;;;;;;14.83;13.73;;;;;;;1.94;100.00;97918.09;2087486;28;20254;-75
2022/01/06 03:27:28;;;;;;;15.70;14.38;;;;;;;1.93;100.00;97914.69;2094800;28;20271;-75
2022/01/06 03:28:30;;;;;;;15.50;14.20;;;;;;;1.99;100.00;97925.94;2095008;28;20300;-76
2022/01/06 03:29:31;;;;;;;14.68;13.48;;;;;;;2.02;100.00;97925.44;2087257;28;20586;-75
2022/01/06 03:30:33;;;;;;;14.73;13.40;;;;;;;2.01;100.00;97921.22;2087382;28;20242;-75
2022/01/06 03:31:33;;;;;;;13.90;12.95;;;;;;;1.96;100.00;97916.75;2086595;28;20222;-75
2022/01/06 03:32:39;;;;;;;14.77;13.70;;;;;;;1.97;100.00;97907.81;2087288;28;20219;-75
2022/01/06 03:33:40;;;;;;;15.15;13.70;;;;;;;1.99;100.00;97912.81;2087105;28;20219;-75
2022/01/06 03:34:42;;;;;;;14.90;13.70;;;;;;;1.92;100.00;97910.47;2086386;28;20314;-75
2022/01/06 03:35:42;;;;;;;15.43;14.32;;;;;;;1.93;100.00;97925.19;2086701;28;20227;-75
2022/01/06 03:36:44;;;;;;;15.33;13.90;;;;;;;1.97;100.00;97925.44;2087404;28;20305;-75
2022/01/06 03:37:46;;;;;;;15.43;14.23;;;;;;;1.97;100.00;97917.53;2086594;28;20222;-75
2022/01/06 03:38:50;;;;;;;15.25;14.05;;;;;;;1.97;100.00;97922.81;2086511;28;20305;-75
2022/01/06 03:39:52;;;;;;;14.90;13.90;;;;;;;1.98;100.00;97919.91;2086392;28;20218;-76
2022/01/06 03:40:54;;;;;;;15.00;13.68;;;;;;;2.02;100.00;97924.66;2078145;28;20219;-75
2022/01/06 03:41:55;;;;;;;14.77;13.77;;;;;;;2.04;100.00;97928.56;2086459;28;20223;-75
2022/01/06 03:42:57;;;;;;;15.80;14.30;;;;;;;2.05;100.00;97930.16;2086628;28;20226;-75
2022/01/06 03:43:57;;;;;;;15.65;14.15;;;;;;;2.11;100.00;97929.09;2086445;28;20223;-75
2022/01/06 03:44:59;;;;;;;15.13;14.03;;;;;;;2.12;100.00;97930.66;2086517;28;20309;-75
2022/01/06 03:46:00;;;;;;;15.13;14.02;;;;;;;2.19;100.00;97933.00;2086438;28;20676;-76
2022/01/06 03:47:03;;;;;;;15.00;14.00;;;;;;;2.20;100.00;97931.94;2078469;28;20223;-76
2022/01/06 03:48:04;;;;;;;14.55;13.48;;;;;;;2.20;100.00;97929.31;2078421;28;20226;-75
2022/01/06 03:49:06;;;;;;;15.98;14.75;;;;;;;2.17;100.00;97928.03;2086285;28;20242;-75
2022/01/06 03:50:08;;;;;;;16.33;15.13;;;;;;;2.19;100.00;97935.63;2086009;28;20657;-76
2022/01/06 03:51:10;;;;;;;15.95;14.75;;;;;;;2.19;100.00;97928.53;2078382;28;20242;-75
2022/01/06 03:52:11;;;;;;;14.43;13.18;;;;;;;2.21;100.00;97934.31;2086549;28;20234;-76
2022/01/06 03:53:17;;;;;;;14.90;13.80;;;;;;;2.18;100.00;97926.97;2087183;28;20253;-75
2022/01/06 03:54:18;;;;;;;14.68;13.57;;;;;;;2.20;100.00;97922.22;2087209;28;20226;-75
2022/01/06 03:55:20;;;;;;;17.07;15.53;;;;;;;2.19;100.00;97910.13;2087113;28;20247;-76
2022/01/06 03:56:21;;;;;;;15.93;14.63;;;;;;;2.19;100.00;97909.31;2087306;28;20229;-75
2022/01/06 03:57:22;;;;;;;16.93;15.50;;;;;;;2.31;100.00;97916.91;2086039;28;20349;-76
2022/01/06 03:58:23;;;;;;;15.40;14.35;;;;;;;2.26;100.00;97915.09;2086436;28;20227;-76
2022/01/06 03:59:25;;;;;;;16.30;15.10;;;;;;;2.26;100.00;97920.34;2087149;28;20232;-75
2022/01/06 04:00:27;;;;;;;15.70;14.70;;;;;;;2.24;100.00;97917.19;2087193;28;20689;-75
2022/01/06 04:01:30;;;;;;;15.57;14.40;;;;;;;2.25;100.00;97930.06;2086991;28;20227;-76
2022/01/06 04:02:30;;;;;;;15.77;14.73;;;;;;;2.32;100.00;97939.53;2086340;28;20644;-75
2022/01/06 04:03:32;;;;;;;15.93;14.50;;;;;;;2.31;100.00;97933.47;2086420;28;20227;-75
2022/01/06 04:04:33;;;;;;;15.90;14.70;;;;;;;2.30;100.00;97931.13;2086357;28;20585;-75
2022/01/06 04:05:35;;;;;;;15.37;14.30;;;;;;;2.30;100.00;97941.66;2086382;28;20325;-75
2022/01/06 04:06:35;;;;;;;15.52;14.23;;;;;;;2.33;100.00;97930.56;2086381;28;20277;-75
2022/01/06 04:07:38;;;;;;;15.70;14.20;;;;;;;2.34;100.00;97932.13;2087103;28;20783;-75
2022/01/06 04:08:40;;;;;;;15.25;13.95;;;;;;;2.34;100.00;97934.78;2086689;28;20222;-75
2022/01/06 04:09:41;;;;;;;14.70;13.30;;;;;;;2.26;100.00;97931.66;2086116;28;20240;-75
2022/01/06 04:10:42;;;;;;;14.85;13.70;;;;;;;2.30;100.00;97942.44;2078074;28;20234;-75
2022/01/06 04:11:44;;;;;;;14.83;13.60;;;;;;;2.32;100.00;97939.53;2078138;28;20235;-75
2022/01/06 04:12:44;;;;;;;14.88;13.98;;;;;;;2.33;100.00;97936.63;2086422;28;20225;-75
2022/01/06 04:13:46;;;;;;;13.63;12.80;;;;;;;2.36;100.00;97935.31;2086409;28;20305;-76
2022/01/06 04:14:49;;;;;;;15.85;14.30;;;;;;;2.38;100.00;97938.47;2086366;28;20226;-75
2022/01/06 04:15:50;;;;;;;15.18;13.88;;;;;;;2.36;100.00;97941.38;2087018;28;20226;-76
2022/01/06 04:16:57;;;;;;;16.67;15.47;;;;;;;2.39;100.00;97942.66;2086430;28;20214;-75
2022/01/06 04:17:58;;;;;;;16.02;14.38;;;;;;;2.40;100.00;97938.97;2086150;28;20225;-75
2022/01/06 04:19:00;;;;;;;16.10;14.90;;;;;;;2.39;100.00;97951.34;2087146;28;20313;-76
2022/01/06 04:20:00;;;;;;;15.27;14.25;;;;;;;2.40;100.00;97949.50;2086996;28;20277;-76
2022/01/06 04:21:05;;;;;;;15.13;14.07;;;;;;;2.39;100.00;97945.28;2086242;28;20332;-76
2022/01/06 04:22:06;;;;;;;16.02;14.90;;;;;;;2.42;100.00;97950.00;2086350;28;20222;-75
2022/01/06 04:23:08;;;;;;;15.10;14.02;;;;;;;2.41;100.00;97953.69;2086744;28;20264;-75
2022/01/06 04:24:10;;;;;;;16.02;14.38;;;;;;;2.40;100.00;97949.50;2086273;28;20293;-75
2022/01/06 04:25:13;;;;;;;15.60;14.40;;;;;;;2.39;100.00;97950.56;2077992;28;20808;-75
2022/01/06 04:26:15;;;;;;;16.30;15.02;;;;;;;2.47;100.00;97950.78;2078155;28;20215;-75
2022/01/06 04:27:15;;;;;;;15.57;14.40;;;;;;;2.46;100.00;97954.47;2078130;28;20250;-75
2022/01/06 04:28:18;;;;;;;16.00;14.80;;;;;;;2.48;100.00;97951.56;2086108;28;20720;-75
2022/01/06 04:29:19;;;;;;;15.70;14.60;;;;;;;2.46;100.00;97956.31;2086074;28;20223;-76
2022/01/06 04:30:20;;;;;;;16.20;15.00;;;;;;;2.44;100.00;97958.44;2086961;28;20227;-76
2022/01/06 04:31:21;;;;;;;15.93;14.82;;;;;;;2.46;100.00;97948.41;2086931;28;20219;-75
2022/01/06 04:32:23;;;;;;;16.30;14.60;;;;;;;2.47;100.00;97950.00;2085746;28;20246;-76
2022/01/06 04:33:23;;;;;;;16.67;15.00;;;;;;;2.47;100.00;97952.63;2086273;28;20235;-76
2022/01/06 04:34:25;;;;;;;16.23;14.97;;;;;;;2.49;100.00;97956.56;2086945;28;20234;-75
2022/01/06 04:35:26;;;;;;;15.75;14.60;;;;;;;2.47;100.00;97957.88;2086914;28;20219;-76
2022/01/06 04:36:28;;;;;;;16.60;15.20;;;;;;;2.45;100.00;97960.00;2087021;28;20240;-75
2022/01/06 04:37:29;;;;;;;16.88;15.38;;;;;;;2.44;100.00;97956.59;2087049;28;20226;-76
2022/01/06 04:38:31;;;;;;;16.63;15.10;;;;;;;2.47;100.00;97958.69;2086263;28;20312;-75
2022/01/06 04:39:33;;;;;;;17.10;15.68;;;;;;;2.48;100.00;97964.72;2086247;28;20218;-76
2022/01/06 04:40:35;;;;;;;16.30;15.10;;;;;;;2.45;100.00;97952.91;2086183;28;20223;-75
2022/01/06 04:41:36;;;;;;;16.05;14.95;;;;;;;2.46;100.00;97956.31;2086166;28;20247;-75
2022/01/06 04:42:39;;;;;;;17.00;15.40;;;;;;;2.48;100.00;97956.84;2085764;28;20223;-76
2022/01/06 04:43:41;;;;;;;15.63;14.63;;;;;;;2.46;100.00;97959.75;2087808;28;20248;-76
2022/01/06 04:44:43;;;;;;;16.50;14.93;;;;;;;2.45;100.00;97960.81;2088734;28;20249;-75
2022/01/06 04:45:43;;;;;;;16.90;15.35;;;;;;;2.51;100.00;97964.19;2088624;28;20214;-75
2022/01/06 04:46:45;;;;;;;15.50;14.30;;;;;;;2.53;100.00;97962.09;2087780;28;20229;-75
2022/01/06 04:47:46;;;;;;;15.75;14.55;;;;;;;2.53;100.00;97967.34;2079693;28;20238;-75
2022/01/06 04:48:48;;;;;;;15.47;14.33;;;;;;;2.54;100.00;97967.06;2079927;28;20298;-76
2022/01/06 04:49:49;;;;;;;15.15;14.05;;;;;;;2.54;100.00;97977.59;2087841;28;20651;-76
2022/01/06 04:50:50;;;;;;;15.70;14.80;;;;;;;2.57;100.00;97971.00;2087904;28;20224;-76